sensor_id;sensor_type;location;lat;lon;timestamp;temperature;humidity
11577;DHT22;5844;51.496;6.788;2023-11-19T00:00:36;10.90;99.90
11577;DHT22;5844;51.496;6.788;2023-11-19T00:03:01;11.00;99.90
11577;DHT22;5844;51.496;6.788;2023-11-19T00:05:27;11.00;99.90
11577;DHT22;5844;51.496;6.788;2023-11-19T00:07:53;11.00;99.90
11577;DHT22;5844;51.496;6.788;2023-11-19T00:10:19;11.00;99.90
11577;DHT22;5844;51.496;6.788;2023-11-19T00:12:47;11.00;99.90
11577;DHT22;5844;51.496;6.788;2023-11-19T00:15:14;11.10;99.90
11577;DHT22;5844;51.496;6.788;2023-11-19T00:17:46;11.10;99.90
11577;DHT22;5844;51.496;6.788;2023-11-19T00:20:14;11.20;99.90
11577;DHT22;5844;51.496;6.788;2023-11-19T00:22:40;11.30;99.90
11577;DHT22;5844;51.496;6.788;2023-11-19T00:25:07;11.40;99.90
11577;DHT22;5844;51.496;6.788;2023-11-19T00:30:05;11.70;99.90
11577;DHT22;5844;51.496;6.788;2023-11-19T00:32:32;11.80;99.90
11577;DHT22;5844;51.496;6.788;2023-11-19T00:34:58;11.90;99.90
11577;DHT22;5844;51.496;6.788;2023-11-19T00:37:23;12.00;99.90
11577;DHT22;5844;51.496;6.788;2023-11-19T00:39:49;12.10;99.90
11577;DHT22;5844;51.496;6.788;2023-11-19T00:42:14;12.20;99.90
11577;DHT22;5844;51.496;6.788;2023-11-19T00:44:40;12.30;99.90
11577;DHT22;5844;51.496;6.788;2023-11-19T00:47:07;12.30;99.90
11577;DHT22;5844;51.496;6.788;2023-11-19T00:49:32;12.40;99.90
11577;DHT22;5844;51.496;6.788;2023-11-19T00:51:59;12.50;99.90
11577;DHT22;5844;51.496;6.788;2023-11-19T00:54:25;12.50;98.70
11577;DHT22;5844;51.496;6.788;2023-11-19T00:56:53;12.50;96.10
11577;DHT22;5844;51.496;6.788;2023-11-19T00:59:19;12.60;93.70
11577;DHT22;5844;51.496;6.788;2023-11-19T01:01:45;12.60;91.80
11577;DHT22;5844;51.496;6.788;2023-11-19T01:04:11;12.50;91.50
11577;DHT22;5844;51.496;6.788;2023-11-19T01:06:37;12.60;91.10
11577;DHT22;5844;51.496;6.788;2023-11-19T01:09:02;12.60;90.10
11577;DHT22;5844;51.496;6.788;2023-11-19T01:11:28;12.60;90.60
11577;DHT22;5844;51.496;6.788;2023-11-19T01:13:54;12.60;86.20
11577;DHT22;5844;51.496;6.788;2023-11-19T01:16:20;12.70;87.10
11577;DHT22;5844;51.496;6.788;2023-11-19T01:18:49;12.70;84.10
11577;DHT22;5844;51.496;6.788;2023-11-19T01:21:15;12.70;80.90
11577;DHT22;5844;51.496;6.788;2023-11-19T01:23:41;12.70;79.40
11577;DHT22;5844;51.496;6.788;2023-11-19T01:26:11;12.70;80.20
11577;DHT22;5844;51.496;6.788;2023-11-19T01:28:38;12.70;79.30
11577;DHT22;5844;51.496;6.788;2023-11-19T01:31:10;12.70;79.90
11577;DHT22;5844;51.496;6.788;2023-11-19T01:33:36;12.80;80.30
11577;DHT22;5844;51.496;6.788;2023-11-19T01:36:02;12.80;80.50
11577;DHT22;5844;51.496;6.788;2023-11-19T01:38:29;12.80;99.90
11577;DHT22;5844;51.496;6.788;2023-11-19T01:40:56;12.80;80.10
11577;DHT22;5844;51.496;6.788;2023-11-19T01:43:39;12.80;78.20
11577;DHT22;5844;51.496;6.788;2023-11-19T01:46:08;12.80;78.70
11577;DHT22;5844;51.496;6.788;2023-11-19T01:48:36;12.70;75.50
11577;DHT22;5844;51.496;6.788;2023-11-19T01:51:03;12.70;78.70
11577;DHT22;5844;51.496;6.788;2023-11-19T01:53:30;12.80;78.10
11577;DHT22;5844;51.496;6.788;2023-11-19T01:55:56;12.80;77.90
11577;DHT22;5844;51.496;6.788;2023-11-19T01:58:22;12.80;74.20
11577;DHT22;5844;51.496;6.788;2023-11-19T02:00:48;12.80;71.90
11577;DHT22;5844;51.496;6.788;2023-11-19T02:03:14;12.80;70.80
11577;DHT22;5844;51.496;6.788;2023-11-19T02:05:41;12.90;68.40
11577;DHT22;5844;51.496;6.788;2023-11-19T02:08:07;12.90;66.30
11577;DHT22;5844;51.496;6.788;2023-11-19T02:10:33;12.90;63.00
11577;DHT22;5844;51.496;6.788;2023-11-19T02:12:59;12.90;59.30
11577;DHT22;5844;51.496;6.788;2023-11-19T02:15:25;12.90;58.60
11577;DHT22;5844;51.496;6.788;2023-11-19T02:17:51;12.90;56.90
11577;DHT22;5844;51.496;6.788;2023-11-19T02:20:17;12.90;54.80
11577;DHT22;5844;51.496;6.788;2023-11-19T02:22:48;12.90;52.40
11577;DHT22;5844;51.496;6.788;2023-11-19T02:25:30;12.90;52.10
11577;DHT22;5844;51.496;6.788;2023-11-19T02:28:01;12.90;50.40
11577;DHT22;5844;51.496;6.788;2023-11-19T02:30:27;12.90;49.10
11577;DHT22;5844;51.496;6.788;2023-11-19T02:32:58;12.90;46.20
11577;DHT22;5844;51.496;6.788;2023-11-19T02:35:26;12.90;45.30
11577;DHT22;5844;51.496;6.788;2023-11-19T02:37:52;12.90;43.50
11577;DHT22;5844;51.496;6.788;2023-11-19T02:40:18;12.90;41.00
11577;DHT22;5844;51.496;6.788;2023-11-19T02:42:44;13.00;39.40
11577;DHT22;5844;51.496;6.788;2023-11-19T02:45:10;13.00;37.30
11577;DHT22;5844;51.496;6.788;2023-11-19T02:47:40;13.00;35.50
11577;DHT22;5844;51.496;6.788;2023-11-19T02:50:08;13.00;34.50
11577;DHT22;5844;51.496;6.788;2023-11-19T02:52:46;13.00;35.50
11577;DHT22;5844;51.496;6.788;2023-11-19T02:55:12;12.90;33.90
11577;DHT22;5844;51.496;6.788;2023-11-19T02:57:38;13.00;33.40
11577;DHT22;5844;51.496;6.788;2023-11-19T03:00:15;13.00;32.40
11577;DHT22;5844;51.496;6.788;2023-11-19T03:02:41;13.00;32.70
11577;DHT22;5844;51.496;6.788;2023-11-19T03:05:19;13.00;33.80
11577;DHT22;5844;51.496;6.788;2023-11-19T03:07:45;13.00;32.40
11577;DHT22;5844;51.496;6.788;2023-11-19T03:10:11;13.00;32.60
11577;DHT22;5844;51.496;6.788;2023-11-19T03:12:42;13.00;30.50
11577;DHT22;5844;51.496;6.788;2023-11-19T03:15:08;13.00;29.20
11577;DHT22;5844;51.496;6.788;2023-11-19T03:17:40;13.10;28.00
11577;DHT22;5844;51.496;6.788;2023-11-19T03:20:08;13.00;28.60
11577;DHT22;5844;51.496;6.788;2023-11-19T03:22:37;13.00;27.70
11577;DHT22;5844;51.496;6.788;2023-11-19T03:25:03;13.00;28.70
11577;DHT22;5844;51.496;6.788;2023-11-19T03:27:29;13.00;29.00
11577;DHT22;5844;51.496;6.788;2023-11-19T03:29:55;12.90;27.60
11577;DHT22;5844;51.496;6.788;2023-11-19T03:32:20;12.90;25.20
11577;DHT22;5844;51.496;6.788;2023-11-19T03:34:46;12.80;23.50
11577;DHT22;5844;51.496;6.788;2023-11-19T03:37:11;12.70;23.30
11577;DHT22;5844;51.496;6.788;2023-11-19T03:39:40;12.60;22.30
11577;DHT22;5844;51.496;6.788;2023-11-19T03:42:05;12.60;19.70
11577;DHT22;5844;51.496;6.788;2023-11-19T03:44:31;12.60;16.00
11577;DHT22;5844;51.496;6.788;2023-11-19T03:46:56;12.60;10.50
11577;DHT22;5844;51.496;6.788;2023-11-19T03:49:22;12.60;6.10
11577;DHT22;5844;51.496;6.788;2023-11-19T03:51:49;12.70;1.90
11577;DHT22;5844;51.496;6.788;2023-11-19T03:54:15;12.60;1.00
11577;DHT22;5844;51.496;6.788;2023-11-19T03:56:40;12.50;1.00
11577;DHT22;5844;51.496;6.788;2023-11-19T03:59:06;12.40;1.00
11577;DHT22;5844;51.496;6.788;2023-11-19T04:01:32;12.40;1.00
11577;DHT22;5844;51.496;6.788;2023-11-19T04:03:58;12.40;1.00
11577;DHT22;5844;51.496;6.788;2023-11-19T04:06:25;12.40;1.00
11577;DHT22;5844;51.496;6.788;2023-11-19T04:08:51;12.30;1.00
11577;DHT22;5844;51.496;6.788;2023-11-19T04:11:16;12.30;1.00
11577;DHT22;5844;51.496;6.788;2023-11-19T04:13:42;12.20;1.00
11577;DHT22;5844;51.496;6.788;2023-11-19T04:16:08;12.30;1.00
11577;DHT22;5844;51.496;6.788;2023-11-19T04:18:33;12.20;1.00
11577;DHT22;5844;51.496;6.788;2023-11-19T04:20:59;12.30;1.00
11577;DHT22;5844;51.496;6.788;2023-11-19T04:23:24;12.20;1.00
11577;DHT22;5844;51.496;6.788;2023-11-19T04:25:50;12.20;1.00
11577;DHT22;5844;51.496;6.788;2023-11-19T04:28:16;12.20;1.00
11577;DHT22;5844;51.496;6.788;2023-11-19T04:30:42;12.20;1.00
11577;DHT22;5844;51.496;6.788;2023-11-19T04:33:07;12.10;1.00
11577;DHT22;5844;51.496;6.788;2023-11-19T04:35:33;12.10;1.00
11577;DHT22;5844;51.496;6.788;2023-11-19T04:37:58;12.10;1.30
11577;DHT22;5844;51.496;6.788;2023-11-19T04:40:24;12.10;1.00
11577;DHT22;5844;51.496;6.788;2023-11-19T04:42:50;12.20;1.00
11577;DHT22;5844;51.496;6.788;2023-11-19T04:45:16;12.20;1.00
11577;DHT22;5844;51.496;6.788;2023-11-19T04:47:42;12.20;1.00
11577;DHT22;5844;51.496;6.788;2023-11-19T04:50:08;12.30;1.00
11577;DHT22;5844;51.496;6.788;2023-11-19T04:52:38;12.30;1.00
11577;DHT22;5844;51.496;6.788;2023-11-19T04:55:06;12.30;1.00
11577;DHT22;5844;51.496;6.788;2023-11-19T04:57:31;12.30;1.00
11577;DHT22;5844;51.496;6.788;2023-11-19T04:59:58;12.40;1.00
11577;DHT22;5844;51.496;6.788;2023-11-19T05:02:24;12.40;1.00
11577;DHT22;5844;51.496;6.788;2023-11-19T05:04:49;12.40;1.00
11577;DHT22;5844;51.496;6.788;2023-11-19T05:07:15;12.50;1.00
11577;DHT22;5844;51.496;6.788;2023-11-19T05:09:41;12.50;1.00
11577;DHT22;5844;51.496;6.788;2023-11-19T05:12:09;12.60;1.00
11577;DHT22;5844;51.496;6.788;2023-11-19T05:14:37;12.60;1.00
11577;DHT22;5844;51.496;6.788;2023-11-19T05:17:03;12.60;1.00
11577;DHT22;5844;51.496;6.788;2023-11-19T05:19:29;12.60;1.00
11577;DHT22;5844;51.496;6.788;2023-11-19T05:21:54;12.70;1.00
11577;DHT22;5844;51.496;6.788;2023-11-19T05:24:20;12.70;1.00
11577;DHT22;5844;51.496;6.788;2023-11-19T05:26:46;12.70;1.00
11577;DHT22;5844;51.496;6.788;2023-11-19T05:29:12;12.60;1.00
11577;DHT22;5844;51.496;6.788;2023-11-19T05:31:38;12.60;1.00
11577;DHT22;5844;51.496;6.788;2023-11-19T05:34:03;12.60;1.00
11577;DHT22;5844;51.496;6.788;2023-11-19T05:36:29;12.60;1.00
11577;DHT22;5844;51.496;6.788;2023-11-19T05:38:55;12.60;1.00
11577;DHT22;5844;51.496;6.788;2023-11-19T05:41:21;12.60;1.00
11577;DHT22;5844;51.496;6.788;2023-11-19T05:43:46;12.60;1.00
11577;DHT22;5844;51.496;6.788;2023-11-19T05:46:12;12.60;1.00
11577;DHT22;5844;51.496;6.788;2023-11-19T05:48:39;12.50;1.00
11577;DHT22;5844;51.496;6.788;2023-11-19T05:51:05;12.40;1.00
11577;DHT22;5844;51.496;6.788;2023-11-19T05:53:31;12.30;1.00
11577;DHT22;5844;51.496;6.788;2023-11-19T05:55:57;12.30;1.00
11577;DHT22;5844;51.496;6.788;2023-11-19T05:58:24;12.30;1.00
11577;DHT22;5844;51.496;6.788;2023-11-19T06:00:51;12.20;1.00
11577;DHT22;5844;51.496;6.788;2023-11-19T06:03:17;12.20;1.00
11577;DHT22;5844;51.496;6.788;2023-11-19T06:05:47;12.20;1.00
11577;DHT22;5844;51.496;6.788;2023-11-19T06:08:14;12.20;1.00
11577;DHT22;5844;51.496;6.788;2023-11-19T06:10:44;12.10;1.00
11577;DHT22;5844;51.496;6.788;2023-11-19T06:13:12;12.10;1.00
11577;DHT22;5844;51.496;6.788;2023-11-19T06:15:38;12.10;1.00
11577;DHT22;5844;51.496;6.788;2023-11-19T06:18:03;12.10;1.00
11577;DHT22;5844;51.496;6.788;2023-11-19T06:20:32;12.10;1.00
11577;DHT22;5844;51.496;6.788;2023-11-19T06:22:59;12.20;1.00
11577;DHT22;5844;51.496;6.788;2023-11-19T06:25:24;12.00;1.00
11577;DHT22;5844;51.496;6.788;2023-11-19T06:27:50;12.10;1.00
11577;DHT22;5844;51.496;6.788;2023-11-19T06:30:16;12.10;1.00
11577;DHT22;5844;51.496;6.788;2023-11-19T06:32:42;12.00;1.00
11577;DHT22;5844;51.496;6.788;2023-11-19T06:35:08;12.00;1.00
11577;DHT22;5844;51.496;6.788;2023-11-19T06:37:35;12.10;1.00
11577;DHT22;5844;51.496;6.788;2023-11-19T06:40:01;12.10;1.00
11577;DHT22;5844;51.496;6.788;2023-11-19T06:42:26;12.10;1.00
11577;DHT22;5844;51.496;6.788;2023-11-19T06:44:52;12.10;1.00
11577;DHT22;5844;51.496;6.788;2023-11-19T06:47:18;12.10;1.00
11577;DHT22;5844;51.496;6.788;2023-11-19T06:49:44;12.10;1.00
11577;DHT22;5844;51.496;6.788;2023-11-19T06:52:13;12.10;1.00
11577;DHT22;5844;51.496;6.788;2023-11-19T06:54:39;12.20;1.00
11577;DHT22;5844;51.496;6.788;2023-11-19T06:57:05;12.20;1.00
11577;DHT22;5844;51.496;6.788;2023-11-19T06:59:30;12.20;1.00
11577;DHT22;5844;51.496;6.788;2023-11-19T07:01:56;12.20;1.00
11577;DHT22;5844;51.496;6.788;2023-11-19T07:04:22;12.20;1.00
11577;DHT22;5844;51.496;6.788;2023-11-19T07:06:48;12.20;1.00
11577;DHT22;5844;51.496;6.788;2023-11-19T07:09:18;12.10;1.00
11577;DHT22;5844;51.496;6.788;2023-11-19T07:11:44;12.20;1.00
11577;DHT22;5844;51.496;6.788;2023-11-19T07:14:11;12.10;1.00
11577;DHT22;5844;51.496;6.788;2023-11-19T07:16:37;12.10;1.00
11577;DHT22;5844;51.496;6.788;2023-11-19T07:19:04;12.10;1.00
11577;DHT22;5844;51.496;6.788;2023-11-19T07:21:31;12.10;1.00
11577;DHT22;5844;51.496;6.788;2023-11-19T07:23:58;12.00;1.00
11577;DHT22;5844;51.496;6.788;2023-11-19T07:26:24;12.00;1.00
11577;DHT22;5844;51.496;6.788;2023-11-19T07:28:49;11.90;1.00
11577;DHT22;5844;51.496;6.788;2023-11-19T07:31:15;11.90;1.00
11577;DHT22;5844;51.496;6.788;2023-11-19T07:33:41;11.90;1.00
11577;DHT22;5844;51.496;6.788;2023-11-19T07:36:10;11.90;1.00
11577;DHT22;5844;51.496;6.788;2023-11-19T07:38:36;11.90;1.00
11577;DHT22;5844;51.496;6.788;2023-11-19T07:41:01;11.90;1.00
11577;DHT22;5844;51.496;6.788;2023-11-19T07:43:27;11.90;1.00
11577;DHT22;5844;51.496;6.788;2023-11-19T07:45:53;11.90;1.00
11577;DHT22;5844;51.496;6.788;2023-11-19T07:48:18;12.00;1.00
11577;DHT22;5844;51.496;6.788;2023-11-19T07:50:49;12.10;1.00
11577;DHT22;5844;51.496;6.788;2023-11-19T07:53:18;12.10;1.00
11577;DHT22;5844;51.496;6.788;2023-11-19T07:55:43;12.10;1.00
11577;DHT22;5844;51.496;6.788;2023-11-19T07:58:10;12.10;1.00
11577;DHT22;5844;51.496;6.788;2023-11-19T08:00:36;12.10;1.00
11577;DHT22;5844;51.496;6.788;2023-11-19T08:03:03;12.20;1.00
11577;DHT22;5844;51.496;6.788;2023-11-19T08:05:28;12.20;1.00
11577;DHT22;5844;51.496;6.788;2023-11-19T08:07:54;12.20;1.00
11577;DHT22;5844;51.496;6.788;2023-11-19T08:10:20;12.20;1.00
11577;DHT22;5844;51.496;6.788;2023-11-19T08:12:45;12.20;1.00
11577;DHT22;5844;51.496;6.788;2023-11-19T08:15:11;12.20;1.00
11577;DHT22;5844;51.496;6.788;2023-11-19T08:17:37;12.30;1.00
11577;DHT22;5844;51.496;6.788;2023-11-19T08:20:03;12.30;1.00
11577;DHT22;5844;51.496;6.788;2023-11-19T08:22:30;12.30;1.00
11577;DHT22;5844;51.496;6.788;2023-11-19T08:24:56;12.40;1.00
11577;DHT22;5844;51.496;6.788;2023-11-19T08:27:22;12.40;1.00
11577;DHT22;5844;51.496;6.788;2023-11-19T08:29:54;12.40;1.00
11577;DHT22;5844;51.496;6.788;2023-11-19T08:32:25;12.40;1.00
11577;DHT22;5844;51.496;6.788;2023-11-19T08:34:51;12.50;1.00
11577;DHT22;5844;51.496;6.788;2023-11-19T08:37:16;12.50;1.00
11577;DHT22;5844;51.496;6.788;2023-11-19T08:39:50;12.40;1.00
11577;DHT22;5844;51.496;6.788;2023-11-19T08:42:19;12.30;1.00
11577;DHT22;5844;51.496;6.788;2023-11-19T08:44:49;12.30;1.00
11577;DHT22;5844;51.496;6.788;2023-11-19T08:47:16;12.40;1.00
11577;DHT22;5844;51.496;6.788;2023-11-19T08:49:44;12.50;1.00
11577;DHT22;5844;51.496;6.788;2023-11-19T08:52:10;12.50;1.00
11577;DHT22;5844;51.496;6.788;2023-11-19T08:54:36;12.60;1.00
11577;DHT22;5844;51.496;6.788;2023-11-19T08:57:02;12.70;1.00
11577;DHT22;5844;51.496;6.788;2023-11-19T08:59:29;12.80;1.00
11577;DHT22;5844;51.496;6.788;2023-11-19T09:01:54;12.80;1.00
11577;DHT22;5844;51.496;6.788;2023-11-19T09:04:20;12.90;1.00
11577;DHT22;5844;51.496;6.788;2023-11-19T09:06:48;12.90;1.00
11577;DHT22;5844;51.496;6.788;2023-11-19T09:09:14;13.00;1.00
11577;DHT22;5844;51.496;6.788;2023-11-19T09:11:40;13.10;1.00
11577;DHT22;5844;51.496;6.788;2023-11-19T09:14:06;13.20;1.00
11577;DHT22;5844;51.496;6.788;2023-11-19T09:16:32;13.20;1.00
11577;DHT22;5844;51.496;6.788;2023-11-19T09:18:57;13.30;1.00
11577;DHT22;5844;51.496;6.788;2023-11-19T09:21:28;13.30;1.00
11577;DHT22;5844;51.496;6.788;2023-11-19T09:23:55;13.40;1.00
11577;DHT22;5844;51.496;6.788;2023-11-19T09:26:20;13.50;1.00
11577;DHT22;5844;51.496;6.788;2023-11-19T09:28:46;13.50;1.00
11577;DHT22;5844;51.496;6.788;2023-11-19T09:31:15;13.60;1.00
11577;DHT22;5844;51.496;6.788;2023-11-19T09:33:41;13.70;1.00
11577;DHT22;5844;51.496;6.788;2023-11-19T09:36:08;13.60;1.00
11577;DHT22;5844;51.496;6.788;2023-11-19T09:38:33;13.60;1.00
11577;DHT22;5844;51.496;6.788;2023-11-19T09:41:04;13.70;1.00
11577;DHT22;5844;51.496;6.788;2023-11-19T09:43:33;13.70;1.00
11577;DHT22;5844;51.496;6.788;2023-11-19T09:46:04;13.80;1.00
11577;DHT22;5844;51.496;6.788;2023-11-19T09:48:33;14.00;1.00
11577;DHT22;5844;51.496;6.788;2023-11-19T09:51:00;14.10;1.00
11577;DHT22;5844;51.496;6.788;2023-11-19T09:53:26;14.20;1.00
11577;DHT22;5844;51.496;6.788;2023-11-19T09:55:53;14.10;1.00
11577;DHT22;5844;51.496;6.788;2023-11-19T09:58:19;14.00;1.00
11577;DHT22;5844;51.496;6.788;2023-11-19T10:00:45;14.00;1.00
11577;DHT22;5844;51.496;6.788;2023-11-19T10:03:11;14.00;1.00
11577;DHT22;5844;51.496;6.788;2023-11-19T10:05:38;13.90;1.00
11577;DHT22;5844;51.496;6.788;2023-11-19T10:08:05;13.90;1.00
11577;DHT22;5844;51.496;6.788;2023-11-19T10:10:30;13.90;1.00
11577;DHT22;5844;51.496;6.788;2023-11-19T10:12:57;13.90;1.00
11577;DHT22;5844;51.496;6.788;2023-11-19T10:15:25;13.90;1.00
11577;DHT22;5844;51.496;6.788;2023-11-19T10:17:55;14.00;1.00
11577;DHT22;5844;51.496;6.788;2023-11-19T10:20:20;14.00;1.00
11577;DHT22;5844;51.496;6.788;2023-11-19T10:22:46;14.00;1.00
11577;DHT22;5844;51.496;6.788;2023-11-19T10:25:27;14.00;1.00
11577;DHT22;5844;51.496;6.788;2023-11-19T10:27:54;14.00;1.00
11577;DHT22;5844;51.496;6.788;2023-11-19T10:30:27;14.00;1.00
11577;DHT22;5844;51.496;6.788;2023-11-19T10:33:07;14.00;1.00
11577;DHT22;5844;51.496;6.788;2023-11-19T10:35:34;13.80;1.00
11577;DHT22;5844;51.496;6.788;2023-11-19T10:38:01;13.80;1.00
11577;DHT22;5844;51.496;6.788;2023-11-19T10:40:38;13.80;1.00
11577;DHT22;5844;51.496;6.788;2023-11-19T10:43:07;13.90;1.00
11577;DHT22;5844;51.496;6.788;2023-11-19T10:45:33;13.90;1.00
11577;DHT22;5844;51.496;6.788;2023-11-19T10:47:59;14.00;1.00
11577;DHT22;5844;51.496;6.788;2023-11-19T10:50:28;14.10;1.00
11577;DHT22;5844;51.496;6.788;2023-11-19T10:52:56;14.20;1.00
11577;DHT22;5844;51.496;6.788;2023-11-19T10:55:28;14.30;1.00
11577;DHT22;5844;51.496;6.788;2023-11-19T10:58:00;14.40;1.00
11577;DHT22;5844;51.496;6.788;2023-11-19T11:03:18;14.30;1.00
11577;DHT22;5844;51.496;6.788;2023-11-19T11:05:47;14.20;1.00
11577;DHT22;5844;51.496;6.788;2023-11-19T11:08:13;14.20;1.00
11577;DHT22;5844;51.496;6.788;2023-11-19T11:10:50;14.30;1.00
11577;DHT22;5844;51.496;6.788;2023-11-19T11:13:18;14.20;1.00
11577;DHT22;5844;51.496;6.788;2023-11-19T11:15:45;14.20;1.00
11577;DHT22;5844;51.496;6.788;2023-11-19T11:18:12;14.20;1.00
11577;DHT22;5844;51.496;6.788;2023-11-19T11:20:39;14.30;1.00
11577;DHT22;5844;51.496;6.788;2023-11-19T11:28:23;14.90;1.00
11577;DHT22;5844;51.496;6.788;2023-11-19T11:37:00;16.10;1.00
11577;DHT22;5844;51.496;6.788;2023-11-19T11:39:29;15.50;1.00
11577;DHT22;5844;51.496;6.788;2023-11-19T11:45:04;15.20;1.00
11577;DHT22;5844;51.496;6.788;2023-11-19T11:50:10;15.40;1.00
11577;DHT22;5844;51.496;6.788;2023-11-19T11:55:25;17.00;1.00
11577;DHT22;5844;51.496;6.788;2023-11-19T11:57:51;17.20;1.00
11577;DHT22;5844;51.496;6.788;2023-11-19T12:00:27;17.10;1.00
11577;DHT22;5844;51.496;6.788;2023-11-19T12:02:56;16.70;1.00
11577;DHT22;5844;51.496;6.788;2023-11-19T12:05:23;16.20;1.00
11577;DHT22;5844;51.496;6.788;2023-11-19T12:08:07;15.80;1.00
11577;DHT22;5844;51.496;6.788;2023-11-19T12:10:47;15.60;1.00
11577;DHT22;5844;51.496;6.788;2023-11-19T12:13:14;15.30;1.00
11577;DHT22;5844;51.496;6.788;2023-11-19T12:18:29;14.90;1.00
11577;DHT22;5844;51.496;6.788;2023-11-19T12:20:56;14.80;1.00
11577;DHT22;5844;51.496;6.788;2023-11-19T12:23:25;14.70;1.00
11577;DHT22;5844;51.496;6.788;2023-11-19T12:25:50;14.80;1.00
11577;DHT22;5844;51.496;6.788;2023-11-19T12:28:17;14.80;1.00
11577;DHT22;5844;51.496;6.788;2023-11-19T12:30:43;14.80;1.00
11577;DHT22;5844;51.496;6.788;2023-11-19T12:33:10;14.60;1.00
11577;DHT22;5844;51.496;6.788;2023-11-19T12:35:43;14.50;1.00
11577;DHT22;5844;51.496;6.788;2023-11-19T12:38:19;14.20;1.00
11577;DHT22;5844;51.496;6.788;2023-11-19T12:40:46;13.80;1.00
11577;DHT22;5844;51.496;6.788;2023-11-19T12:43:22;13.60;1.00
11577;DHT22;5844;51.496;6.788;2023-11-19T12:45:48;13.30;1.00
11577;DHT22;5844;51.496;6.788;2023-11-19T12:48:13;13.20;1.00
11577;DHT22;5844;51.496;6.788;2023-11-19T12:50:55;13.10;1.00
11577;DHT22;5844;51.496;6.788;2023-11-19T12:53:22;13.10;1.00
11577;DHT22;5844;51.496;6.788;2023-11-19T12:55:48;13.10;1.00
11577;DHT22;5844;51.496;6.788;2023-11-19T12:58:31;13.20;1.00
11577;DHT22;5844;51.496;6.788;2023-11-19T13:01:01;13.40;1.00
11577;DHT22;5844;51.496;6.788;2023-11-19T13:03:35;13.40;1.00
11577;DHT22;5844;51.496;6.788;2023-11-19T13:06:08;13.40;1.00
11577;DHT22;5844;51.496;6.788;2023-11-19T13:08:45;13.50;1.00
11577;DHT22;5844;51.496;6.788;2023-11-19T13:11:12;13.70;1.00
11577;DHT22;5844;51.496;6.788;2023-11-19T13:14:05;14.10;1.00
11577;DHT22;5844;51.496;6.788;2023-11-19T13:16:36;14.20;1.00
11577;DHT22;5844;51.496;6.788;2023-11-19T13:19:02;14.30;1.00
11577;DHT22;5844;51.496;6.788;2023-11-19T13:21:28;14.20;1.00
11577;DHT22;5844;51.496;6.788;2023-11-19T13:23:55;14.20;1.00
11577;DHT22;5844;51.496;6.788;2023-11-19T13:26:21;14.10;1.00
11577;DHT22;5844;51.496;6.788;2023-11-19T13:28:47;14.10;1.00
11577;DHT22;5844;51.496;6.788;2023-11-19T13:31:12;14.10;1.00
11577;DHT22;5844;51.496;6.788;2023-11-19T13:33:38;14.20;1.00
11577;DHT22;5844;51.496;6.788;2023-11-19T13:36:04;14.40;1.00
11577;DHT22;5844;51.496;6.788;2023-11-19T13:38:36;14.50;1.00
11577;DHT22;5844;51.496;6.788;2023-11-19T13:41:02;14.40;1.00
11577;DHT22;5844;51.496;6.788;2023-11-19T13:43:30;14.30;1.00
11577;DHT22;5844;51.496;6.788;2023-11-19T13:45:56;14.10;1.00
11577;DHT22;5844;51.496;6.788;2023-11-19T13:48:23;14.10;1.00
11577;DHT22;5844;51.496;6.788;2023-11-19T13:50:49;14.10;1.00
11577;DHT22;5844;51.496;6.788;2023-11-19T13:53:15;14.00;1.00
11577;DHT22;5844;51.496;6.788;2023-11-19T13:55:42;13.90;1.00
11577;DHT22;5844;51.496;6.788;2023-11-19T13:58:08;13.80;1.00
11577;DHT22;5844;51.496;6.788;2023-11-19T14:00:33;13.70;1.00
11577;DHT22;5844;51.496;6.788;2023-11-19T14:02:59;13.60;1.00
11577;DHT22;5844;51.496;6.788;2023-11-19T14:05:24;13.50;1.00
11577;DHT22;5844;51.496;6.788;2023-11-19T14:07:50;13.60;1.00
11577;DHT22;5844;51.496;6.788;2023-11-19T14:10:17;13.50;1.00
11577;DHT22;5844;51.496;6.788;2023-11-19T14:12:43;13.50;1.00
11577;DHT22;5844;51.496;6.788;2023-11-19T14:15:09;13.50;1.00
11577;DHT22;5844;51.496;6.788;2023-11-19T14:17:39;13.20;1.00
11577;DHT22;5844;51.496;6.788;2023-11-19T14:20:06;12.90;1.00
11577;DHT22;5844;51.496;6.788;2023-11-19T14:22:42;12.70;1.00
11577;DHT22;5844;51.496;6.788;2023-11-19T14:25:09;12.50;1.00
11577;DHT22;5844;51.496;6.788;2023-11-19T14:27:43;12.40;1.00
11577;DHT22;5844;51.496;6.788;2023-11-19T14:30:10;12.40;1.00
11577;DHT22;5844;51.496;6.788;2023-11-19T14:32:40;12.40;1.00
11577;DHT22;5844;51.496;6.788;2023-11-19T14:35:08;12.40;1.00
11577;DHT22;5844;51.496;6.788;2023-11-19T14:37:34;12.40;1.00
11577;DHT22;5844;51.496;6.788;2023-11-19T14:40:00;12.30;1.00
11577;DHT22;5844;51.496;6.788;2023-11-19T14:42:26;12.30;1.00
11577;DHT22;5844;51.496;6.788;2023-11-19T14:44:52;12.30;1.00
11577;DHT22;5844;51.496;6.788;2023-11-19T14:47:19;12.30;1.00
11577;DHT22;5844;51.496;6.788;2023-11-19T14:49:45;12.30;1.00
11577;DHT22;5844;51.496;6.788;2023-11-19T14:52:11;12.30;1.00
11577;DHT22;5844;51.496;6.788;2023-11-19T14:54:37;12.40;1.00
11577;DHT22;5844;51.496;6.788;2023-11-19T14:57:04;12.40;1.00
11577;DHT22;5844;51.496;6.788;2023-11-19T14:59:30;12.40;1.00
11577;DHT22;5844;51.496;6.788;2023-11-19T15:01:56;12.40;1.00
11577;DHT22;5844;51.496;6.788;2023-11-19T15:04:22;12.50;1.00
11577;DHT22;5844;51.496;6.788;2023-11-19T15:06:48;12.40;1.00
11577;DHT22;5844;51.496;6.788;2023-11-19T15:09:13;12.40;1.00
11577;DHT22;5844;51.496;6.788;2023-11-19T15:11:43;12.40;1.00
11577;DHT22;5844;51.496;6.788;2023-11-19T15:14:12;12.40;1.00
11577;DHT22;5844;51.496;6.788;2023-11-19T15:16:40;12.40;1.00
11577;DHT22;5844;51.496;6.788;2023-11-19T15:19:06;12.40;1.00
11577;DHT22;5844;51.496;6.788;2023-11-19T15:21:34;12.30;1.00
11577;DHT22;5844;51.496;6.788;2023-11-19T15:24:00;12.10;1.00
11577;DHT22;5844;51.496;6.788;2023-11-19T15:26:25;12.00;1.00
11577;DHT22;5844;51.496;6.788;2023-11-19T15:28:51;11.90;1.00
11577;DHT22;5844;51.496;6.788;2023-11-19T15:31:22;11.80;1.00
11577;DHT22;5844;51.496;6.788;2023-11-19T15:33:47;11.70;1.00
11577;DHT22;5844;51.496;6.788;2023-11-19T15:36:13;11.60;1.00
11577;DHT22;5844;51.496;6.788;2023-11-19T15:38:40;11.60;1.00
11577;DHT22;5844;51.496;6.788;2023-11-19T15:41:05;11.60;1.00
11577;DHT22;5844;51.496;6.788;2023-11-19T15:43:33;11.50;1.00
11577;DHT22;5844;51.496;6.788;2023-11-19T15:45:58;11.50;1.00
11577;DHT22;5844;51.496;6.788;2023-11-19T15:48:24;11.50;1.00
11577;DHT22;5844;51.496;6.788;2023-11-19T15:50:51;11.50;1.00
11577;DHT22;5844;51.496;6.788;2023-11-19T15:53:17;11.60;1.00
11577;DHT22;5844;51.496;6.788;2023-11-19T15:55:44;11.60;1.00
11577;DHT22;5844;51.496;6.788;2023-11-19T15:58:10;11.60;1.00
11577;DHT22;5844;51.496;6.788;2023-11-19T16:00:35;11.60;1.00
11577;DHT22;5844;51.496;6.788;2023-11-19T16:03:01;11.70;1.00
11577;DHT22;5844;51.496;6.788;2023-11-19T16:05:28;11.70;1.00
11577;DHT22;5844;51.496;6.788;2023-11-19T16:07:54;11.60;1.00
11577;DHT22;5844;51.496;6.788;2023-11-19T16:10:19;11.60;1.00
11577;DHT22;5844;51.496;6.788;2023-11-19T16:12:46;11.60;1.00
11577;DHT22;5844;51.496;6.788;2023-11-19T16:15:11;11.60;1.00
11577;DHT22;5844;51.496;6.788;2023-11-19T16:17:43;11.60;1.00
11577;DHT22;5844;51.496;6.788;2023-11-19T16:20:09;11.60;1.00
11577;DHT22;5844;51.496;6.788;2023-11-19T16:22:39;11.60;1.00
11577;DHT22;5844;51.496;6.788;2023-11-19T16:25:05;11.50;1.00